Time;durP1;ratioP1;P1;durP2;ratioP2;P2;SDS_P1;SDS_P2;PMS_P1;PMS_P2;Temp;Humidity;BMP_temperature;BMP_pressure;BME280_temperature;BME280_humidity;BME280_pressure;Samples;Min_cycle;Max_cycle;Signal;HPM_P1;HPM_P2
2022/10/22 00:02:48;;;;;;;42.08;18.73;;;;;;;;;;10260446;28;20090;-76
2022/10/22 00:07:48;;;;;;;40.75;18.52;;;;;;;;;;10261814;28;20418;-75
2022/10/22 00:12:48;;;;;;;34.78;19.00;;;;;;;;;;10263552;28;20033;-73
2022/10/22 00:17:49;;;;;;;37.90;18.85;;;;;;;;;;10259399;28;20115;-72
2022/10/22 00:22:49;;;;;;;37.35;19.08;;;;;;;;;;10245005;28;20027;-75
2022/10/22 00:27:49;;;;;;;37.03;18.92;;;;;;;;;;10244650;28;20112;-77
2022/10/22 00:32:49;;;;;;;37.42;18.88;;;;;;;;;;10259062;28;20421;-73
2022/10/22 00:37:50;;;;;;;36.75;17.85;;;;;;;;;;10287490;28;20106;-72
2022/10/22 00:42:50;;;;;;;32.53;17.58;;;;;;;;;;10287653;28;20512;-76
2022/10/22 00:48:00;;;;;;;42.37;20.07;;;;;;;;;;10283759;28;20027;-72
2022/10/22 00:53:01;;;;;;;36.10;18.27;;;;;;;;;;10260008;28;20409;-74
2022/10/22 00:58:02;;;;;;;34.95;17.27;;;;;;;;;;10259035;28;20534;-73
2022/10/22 01:03:02;;;;;;;43.15;19.40;;;;;;;;;;10258989;28;20082;-72
2022/10/22 01:08:02;;;;;;;38.50;16.67;;;;;;;;;;10242939;28;20031;-73
2022/10/22 01:13:13;;;;;;;35.50;18.40;;;;;;;;;;10262193;28;20035;-74
2022/10/22 01:18:16;;;;;;;37.85;18.48;;;;;;;;;;10245026;28;20694;-74
2022/10/22 01:23:26;;;;;;;40.72;18.83;;;;;;;;;;10249099;28;20035;-77
2022/10/22 01:28:45;;;;;;;30.77;18.35;;;;;;;;;;10270256;28;20421;-76
2022/10/22 01:33:46;;;;;;;38.25;17.80;;;;;;;;;;10271019;28;20031;-81
2022/10/22 01:38:48;;;;;;;36.42;17.95;;;;;;;;;;10263308;28;20587;-73
2022/10/22 01:43:48;;;;;;;30.08;15.45;;;;;;;;;;10265467;28;20093;-79
2022/10/22 01:49:07;;;;;;;26.58;13.40;;;;;;;;;;10265084;28;20027;-79
2022/10/22 01:54:09;;;;;;;25.95;14.68;;;;;;;;;;10263973;28;20026;-76
2022/10/22 01:59:28;;;;;;;32.55;15.27;;;;;;;;;;10251245;28;20031;-74
2022/10/22 02:04:32;;;;;;;27.08;14.98;;;;;;;;;;10261900;28;20195;-74
2022/10/22 02:09:33;;;;;;;35.25;18.10;;;;;;;;;;10263260;28;20023;-78
2022/10/22 02:14:35;;;;;;;30.27;14.77;;;;;;;;;;10264086;28;20120;-73
2022/10/22 02:19:38;;;;;;;33.40;16.60;;;;;;;;;;10245168;28;20456;-75
2022/10/22 02:24:38;;;;;;;33.05;15.90;;;;;;;;;;10263751;28;20058;-74
2022/10/22 02:29:48;;;;;;;28.90;14.55;;;;;;;;;;10250264;28;20107;-73
2022/10/22 02:34:49;;;;;;;38.85;17.38;;;;;;;;;;10262752;28;20418;-74
2022/10/22 02:39:51;;;;;;;29.02;14.82;;;;;;;;;;10265670;28;20063;-79
2022/10/22 02:44:52;;;;;;;28.08;13.55;;;;;;;;;;10264156;28;20039;-73
2022/10/22 02:49:52;;;;;;;25.50;14.15;;;;;;;;;;10263873;28;20029;-75
2022/10/22 02:54:52;;;;;;;26.80;14.70;;;;;;;;;;10271492;28;20031;-80
2022/10/22 02:59:52;;;;;;;27.77;12.93;;;;;;;;;;10262618;28;20734;-77
2022/10/22 03:04:53;;;;;;;34.72;13.00;;;;;;;;;;10247706;28;20508;-81
2022/10/22 03:09:53;;;;;;;23.38;12.18;;;;;;;;;;10248054;28;20023;-74
2022/10/22 03:14:54;;;;;;;30.10;14.98;;;;;;;;;;10246774;28;20547;-75
2022/10/22 03:19:54;;;;;;;38.05;18.05;;;;;;;;;;10266495;28;20030;-75
2022/10/22 03:24:57;;;;;;;32.97;17.58;;;;;;;;;;10268105;28;20026;-74
2022/10/22 03:29:58;;;;;;;34.63;16.15;;;;;;;;;;10261576;28;20337;-75
2022/10/22 03:34:59;;;;;;;32.58;15.85;;;;;;;;;;10273097;28;20103;-73
2022/10/22 03:39:59;;;;;;;27.10;15.57;;;;;;;;;;10260871;28;20057;-74
2022/10/22 03:45:00;;;;;;;31.45;15.02;;;;;;;;;;10260435;28;20031;-77
2022/10/22 03:50:02;;;;;;;37.38;16.88;;;;;;;;;;10262501;28;20157;-76
2022/10/22 03:55:03;;;;;;;29.08;15.80;;;;;;;;;;10260642;28;20031;-74
2022/10/22 04:00:04;;;;;;;31.25;16.33;;;;;;;;;;10260097;28;20034;-75
2022/10/22 04:05:04;;;;;;;32.20;14.98;;;;;;;;;;10260294;28;20026;-73
2022/10/22 04:10:05;;;;;;;31.08;15.98;;;;;;;;;;10260037;28;20081;-74
2022/10/22 04:15:05;;;;;;;25.73;13.10;;;;;;;;;;10243395;28;20030;-75
2022/10/22 04:20:06;;;;;;;26.45;12.00;;;;;;;;;;10261655;28;20034;-73
2022/10/22 04:25:06;;;;;;;16.67;9.07;;;;;;;;;;10258637;28;20034;-72
2022/10/22 04:30:07;;;;;;;24.08;11.90;;;;;;;;;;10243082;28;20027;-71
2022/10/22 04:35:07;;;;;;;23.85;11.90;;;;;;;;;;10263913;28;20530;-73
2022/10/22 04:40:08;;;;;;;20.80;12.27;;;;;;;;;;10266841;28;20086;-77
2022/10/22 04:45:08;;;;;;;22.10;12.98;;;;;;;;;;10248360;28;20469;-74
2022/10/22 04:50:08;;;;;;;21.92;13.48;;;;;;;;;;10245173;28;20114;-78
2022/10/22 04:55:09;;;;;;;21.58;12.00;;;;;;;;;;10269790;28;20030;-74
2022/10/22 05:00:09;;;;;;;23.73;12.70;;;;;;;;;;10277131;28;20065;-77
2022/10/22 05:05:10;;;;;;;21.25;11.52;;;;;;;;;;10312137;28;20031;-77
2022/10/22 05:10:11;;;;;;;22.67;12.90;;;;;;;;;;10298070;28;20018;-74
2022/10/22 05:15:11;;;;;;;26.67;11.98;;;;;;;;;;10311628;28;20022;-78
2022/10/22 05:20:11;;;;;;;25.30;11.85;;;;;;;;;;10278298;28;20445;-75
2022/10/22 05:25:11;;;;;;;21.90;11.88;;;;;;;;;;10254411;28;20425;-73
2022/10/22 05:30:12;;;;;;;66.97;60.10;;;;;;;;;;10258095;28;20542;-74
2022/10/22 05:35:12;;;;;;;26.97;13.37;;;;;;;;;;10280872;28;20409;-75
2022/10/22 05:40:12;;;;;;;24.27;12.27;;;;;;;;;;10266398;28;20354;-75
2022/10/22 05:45:12;;;;;;;30.60;11.93;;;;;;;;;;10265134;28;20035;-81
2022/10/22 05:50:13;;;;;;;20.73;11.90;;;;;;;;;;10294985;28;20040;-78
2022/10/22 05:55:13;;;;;;;27.90;12.05;;;;;;;;;;10270500;28;20501;-77
2022/10/22 06:00:13;;;;;;;26.40;14.57;;;;;;;;;;10273223;28;20125;-78
2022/10/22 06:05:14;;;;;;;27.85;13.80;;;;;;;;;;10312110;28;20034;-76
2022/10/22 06:10:15;;;;;;;28.73;15.67;;;;;;;;;;10300399;28;20022;-76
2022/10/22 06:15:17;;;;;;;34.38;17.17;;;;;;;;;;10320365;28;20089;-74
2022/10/22 06:20:17;;;;;;;36.65;17.02;;;;;;;;;;10295299;28;20042;-77
2022/10/22 06:25:17;;;;;;;39.80;18.60;;;;;;;;;;10301451;28;20030;-74
2022/10/22 06:30:18;;;;;;;37.83;18.58;;;;;;;;;;10304169;28;20397;-76
2022/10/22 06:35:18;;;;;;;39.72;18.38;;;;;;;;;;10306228;28;20030;-77
2022/10/22 06:40:18;;;;;;;37.20;16.65;;;;;;;;;;10324976;28;20043;-72
2022/10/22 06:45:18;;;;;;;36.25;18.35;;;;;;;;;;10308195;28;20038;-76
2022/10/22 06:50:19;;;;;;;42.10;25.23;;;;;;;;;;10312759;28;20030;-74
2022/10/22 06:55:19;;;;;;;43.58;21.27;;;;;;;;;;10297551;28;20033;-77
2022/10/22 07:00:20;;;;;;;40.42;19.25;;;;;;;;;;10310538;28;20034;-75
2022/10/22 07:05:20;;;;;;;44.00;19.63;;;;;;;;;;10312609;28;20460;-77
2022/10/22 07:10:20;;;;;;;42.63;19.73;;;;;;;;;;10294277;28;20030;-78
2022/10/22 07:15:21;;;;;;;35.50;19.80;;;;;;;;;;10287446;28;20023;-76
2022/10/22 07:20:22;;;;;;;45.58;20.08;;;;;;;;;;10294993;28;20027;-79
2022/10/22 07:25:23;;;;;;;39.35;20.08;;;;;;;;;;10303100;28;20563;-72
2022/10/22 07:30:23;;;;;;;35.80;18.08;;;;;;;;;;10304490;28;20034;-78
2022/10/22 07:35:23;;;;;;;34.90;17.85;;;;;;;;;;10301345;28;20078;-75
2022/10/22 07:40:23;;;;;;;36.42;20.42;;;;;;;;;;10311107;28;20058;-77
2022/10/22 07:45:24;;;;;;;40.65;21.05;;;;;;;;;;10302753;28;20465;-74
2022/10/22 07:50:25;;;;;;;48.53;19.67;;;;;;;;;;10297312;28;20478;-74
2022/10/22 07:55:26;;;;;;;37.75;19.58;;;;;;;;;;10289877;28;20034;-72
2022/10/22 08:00:26;;;;;;;42.33;19.57;;;;;;;;;;10294495;28;20035;-78
2022/10/22 08:05:27;;;;;;;40.60;18.38;;;;;;;;;;10284662;28;20030;-75
2022/10/22 08:10:28;;;;;;;37.20;18.98;;;;;;;;;;10282131;28;20033;-76
2022/10/22 08:15:30;;;;;;;34.67;17.13;;;;;;;;;;10282887;28;20065;-76
2022/10/22 08:20:31;;;;;;;30.55;16.45;;;;;;;;;;10275971;28;20030;-78
2022/10/22 08:25:33;;;;;;;41.97;19.85;;;;;;;;;;10275461;28;20416;-75
2022/10/22 08:30:36;;;;;;;39.03;17.15;;;;;;;;;;10287502;28;20102;-77
2022/10/22 08:35:36;;;;;;;35.58;16.67;;;;;;;;;;10287274;28;20047;-75
2022/10/22 08:40:38;;;;;;;36.22;20.00;;;;;;;;;;10266149;28;20429;-76
2022/10/22 08:45:59;;;;;;;39.95;17.05;;;;;;;;;;10250582;28;20635;-77
2022/10/22 08:50:59;;;;;;;32.05;15.13;;;;;;;;;;10236788;28;20039;-77
2022/10/22 08:55:59;;;;;;;33.05;17.20;;;;;;;;;;10263781;28;20070;-76
2022/10/22 09:01:05;;;;;;;41.28;16.45;;;;;;;;;;10232429;28;20042;-75
2022/10/22 09:06:06;;;;;;;35.45;16.65;;;;;;;;;;10234906;28;20027;-77
2022/10/22 09:11:09;;;;;;;36.00;16.20;;;;;;;;;;10233722;28;20035;-76
2022/10/22 09:16:13;;;;;;;31.88;17.75;;;;;;;;;;10264947;28;20027;-77
2022/10/22 09:21:26;;;;;;;31.23;16.63;;;;;;;;;;10264631;28;20065;-79
2022/10/22 09:26:26;;;;;;;23.98;13.65;;;;;;;;;;10266937;28;20030;-75
2022/10/22 09:31:29;;;;;;;30.27;14.32;;;;;;;;;;10291639;28;20350;-75
2022/10/22 09:36:30;;;;;;;30.30;14.50;;;;;;;;;;10257538;28;20498;-76
2022/10/22 09:41:31;;;;;;;25.23;13.02;;;;;;;;;;10269358;28;20041;-73
2022/10/22 09:46:38;;;;;;;25.85;12.88;;;;;;;;;;10242645;28;20176;-76
2022/10/22 09:51:57;;;;;;;25.33;12.00;;;;;;;;;;10259527;28;20093;-78
2022/10/22 09:56:57;;;;;;;19.40;11.82;;;;;;;;;;10277552;28;20031;-78
2022/10/22 10:02:01;;;;;;;23.77;11.40;;;;;;;;;;10266497;28;20027;-77
2022/10/22 10:07:02;;;;;;;26.00;11.57;;;;;;;;;;10256468;28;20490;-79
2022/10/22 10:12:17;;;;;;;20.33;10.85;;;;;;;;;;10276458;28;20023;-75
2022/10/22 10:17:39;;;;;;;18.15;9.85;;;;;;;;;;10242990;28;20035;-79
2022/10/22 10:22:56;;;;;;;19.52;9.98;;;;;;;;;;10248310;28;20106;-78
2022/10/22 10:28:02;;;;;;;21.00;9.57;;;;;;;;;;10260042;28;20110;-77
2022/10/22 10:33:21;;;;;;;17.42;9.85;;;;;;;;;;10241029;28;20075;-74
2022/10/22 10:38:31;;;;;;;17.42;9.63;;;;;;;;;;10245014;28;20055;-77
2022/10/22 10:43:32;;;;;;;19.95;10.30;;;;;;;;;;10243428;28;20273;-78
2022/10/22 10:48:32;;;;;;;18.80;10.20;;;;;;;;;;10243063;28;20035;-72
2022/10/22 10:53:45;;;;;;;18.00;9.27;;;;;;;;;;10252910;28;20038;-80
2022/10/22 10:58:54;;;;;;;18.83;7.97;;;;;;;;;;10262059;28;20476;-74
2022/10/22 11:03:57;;;;;;;13.32;8.10;;;;;;;;;;10293893;28;20054;-75
2022/10/22 11:09:01;;;;;;;17.52;8.05;;;;;;;;;;10292281;28;20042;-76
2022/10/22 11:14:24;;;;;;;13.27;7.80;;;;;;;;;;10273573;28;20437;-77
2022/10/22 11:19:30;;;;;;;20.92;8.18;;;;;;;;;;10263785;28;20041;-78
2022/10/22 11:24:33;;;;;;;;;;;;;;;;;;10294021;28;20186;-76
2022/10/22 11:29:37;;;;;;;13.50;8.38;;;;;;;;;;10265348;28;19917;-75
2022/10/22 11:34:42;;;;;;;15.00;9.32;;;;;;;;;;10266814;28;20560;-78
2022/10/22 11:39:44;;;;;;;16.33;8.27;;;;;;;;;;10290579;28;20066;-78
2022/10/22 11:44:46;;;;;;;20.38;9.70;;;;;;;;;;10260163;28;20117;-74
2022/10/22 11:49:57;;;;;;;15.38;8.52;;;;;;;;;;10252994;28;20027;-77
2022/10/22 11:55:00;;;;;;;21.88;9.50;;;;;;;;;;10253309;28;20401;-77
2022/10/22 12:00:05;;;;;;;17.27;8.95;;;;;;;;;;10268823;28;20031;-72
2022/10/22 12:05:20;;;;;;;16.92;9.95;;;;;;;;;;10283785;28;20102;-77
2022/10/22 12:10:25;;;;;;;17.88;9.60;;;;;;;;;;10239145;28;20031;-76
2022/10/22 12:15:26;;;;;;;23.60;10.05;;;;;;;;;;10257172;28;20027;-76
2022/10/22 12:20:27;;;;;;;19.25;9.23;;;;;;;;;;10275690;28;20077;-74
2022/10/22 12:25:30;;;;;;;16.52;8.85;;;;;;;;;;10275977;28;20035;-79
2022/10/22 12:30:34;;;;;;;15.68;9.20;;;;;;;;;;10292126;28;20093;-74
2022/10/22 12:35:41;;;;;;;18.85;9.02;;;;;;;;;;10285686;28;20507;-74
2022/10/22 12:40:43;;;;;;;20.45;8.93;;;;;;;;;;10290977;28;20043;-78
2022/10/22 12:45:44;;;;;;;14.68;8.25;;;;;;;;;;10275384;28;20493;-74
2022/10/22 12:50:47;;;;;;;15.02;8.95;;;;;;;;;;10288065;28;20516;-76
2022/10/22 12:55:49;;;;;;;16.80;8.35;;;;;;;;;;10267935;28;20465;-79
2022/10/22 13:00:53;;;;;;;27.40;8.93;;;;;;;;;;10285617;28;20046;-77
2022/10/22 13:05:53;;;;;;;17.88;8.57;;;;;;;;;;10290333;28;20043;-74
2022/10/22 13:10:54;;;;;;;15.00;7.97;;;;;;;;;;10270821;28;20493;-76
2022/10/22 13:15:55;;;;;;;13.50;8.60;;;;;;;;;;10272659;28;20413;-77
2022/10/22 13:20:57;;;;;;;17.60;8.50;;;;;;;;;;10284688;28;20019;-76
2022/10/22 13:26:13;;;;;;;20.77;8.90;;;;;;;;;;10275603;28;20035;-76
2022/10/22 13:31:18;;;;;;;15.75;9.45;;;;;;;;;;10295563;28;20061;-77
2022/10/22 13:36:18;;;;;;;20.33;9.07;;;;;;;;;;10268222;28;20554;-78
2022/10/22 13:41:19;;;;;;;19.55;8.85;;;;;;;;;;10268033;28;20022;-78
2022/10/22 13:46:20;;;;;;;14.23;8.02;;;;;;;;;;10259912;28;20113;-79
2022/10/22 13:51:21;;;;;;;17.02;8.70;;;;;;;;;;10244713;28;20138;-76
2022/10/22 13:56:22;;;;;;;14.52;8.57;;;;;;;;;;10251421;28;20464;-77
2022/10/22 14:01:24;;;;;;;19.30;8.43;;;;;;;;;;10277527;28;20023;-77
2022/10/22 14:06:30;;;;;;;15.52;8.45;;;;;;;;;;10259433;28;20046;-72
2022/10/22 14:11:31;;;;;;;16.00;7.95;;;;;;;;;;10241495;28;20042;-74
2022/10/22 14:16:33;;;;;;;20.13;12.68;;;;;;;;;;10258003;28;20486;-78
2022/10/22 14:21:35;;;;;;;20.73;7.75;;;;;;;;;;10257743;28;20114;-79
2022/10/22 14:26:35;;;;;;;12.30;8.38;;;;;;;;;;10268483;28;20554;-77
2022/10/22 14:31:37;;;;;;;19.73;8.43;;;;;;;;;;10277381;28;20035;-78
2022/10/22 14:36:38;;;;;;;19.63;8.93;;;;;;;;;;10253266;28;20050;-77
2022/10/22 14:41:40;;;;;;;17.60;9.57;;;;;;;;;;10271340;28;20371;-78
2022/10/22 14:46:42;;;;;;;18.90;9.93;;;;;;;;;;10282618;28;20046;-74
2022/10/22 14:51:43;;;;;;;25.98;9.57;;;;;;;;;;10257470;28;20043;-76
2022/10/22 14:56:43;;;;;;;27.80;9.98;;;;;;;;;;10257537;28;20031;-77
2022/10/22 15:01:45;;;;;;;28.50;9.45;;;;;;;;;;10242288;28;20474;-74
2022/10/22 15:06:46;;;;;;;18.00;9.93;;;;;;;;;;10248141;28;20054;-76
2022/10/22 15:11:46;;;;;;;23.08;11.57;;;;;;;;;;10269048;28;20502;-74
2022/10/22 15:16:46;;;;;;;26.57;11.50;;;;;;;;;;10250224;28;20031;-74
2022/10/22 15:21:46;;;;;;;24.35;10.15;;;;;;;;;;10246879;28;20027;-78
2022/10/22 15:26:47;;;;;;;21.63;10.70;;;;;;;;;;10251157;28;20099;-77
2022/10/22 15:31:49;;;;;;;26.23;12.20;;;;;;;;;;10283320;28;20035;-79
2022/10/22 15:36:50;;;;;;;32.72;12.25;;;;;;;;;;10266418;28;20054;-77
2022/10/22 15:41:50;;;;;;;25.38;11.40;;;;;;;;;;10311799;28;20105;-80
2022/10/22 15:46:51;;;;;;;40.53;13.10;;;;;;;;;;10288258;28;20081;-76
2022/10/22 15:51:51;;;;;;;33.20;13.07;;;;;;;;;;10311464;28;20338;-79
2022/10/22 15:56:52;;;;;;;33.30;13.30;;;;;;;;;;10300379;28;20037;-76
2022/10/22 16:01:52;;;;;;;33.45;15.27;;;;;;;;;;10306050;28;20374;-79
2022/10/22 16:06:52;;;;;;;27.08;13.02;;;;;;;;;;10300976;28;20508;-78
2022/10/22 16:11:53;;;;;;;27.45;12.57;;;;;;;;;;10326945;28;20534;-76
2022/10/22 16:16:54;;;;;;;26.35;11.50;;;;;;;;;;10312004;28;20031;-77
2022/10/22 16:21:58;;;;;;;28.73;12.80;;;;;;;;;;10302143;28;20026;-79
2022/10/22 16:26:59;;;;;;;33.90;14.00;;;;;;;;;;10306993;28;20026;-74
2022/10/22 16:31:59;;;;;;;31.90;14.65;;;;;;;;;;10302504;28;20039;-76
2022/10/22 16:37:01;;;;;;;45.38;15.38;;;;;;;;;;10303974;28;20512;-78
2022/10/22 16:42:01;;;;;;;39.60;16.02;;;;;;;;;;10307317;28;20397;-77
2022/10/22 16:47:02;;;;;;;26.27;13.35;;;;;;;;;;10303582;28;20034;-79
2022/10/22 16:52:02;;;;;;;32.80;14.70;;;;;;;;;;10307669;28;20081;-77
2022/10/22 16:57:02;;;;;;;38.85;14.23;;;;;;;;;;10327007;28;20022;-80
2022/10/22 17:02:02;;;;;;;30.80;14.18;;;;;;;;;;10312440;28;20041;-74
2022/10/22 17:07:03;;;;;;;29.10;13.52;;;;;;;;;;10317559;28;20406;-76
2022/10/22 17:12:03;;;;;;;28.45;14.80;;;;;;;;;;10320076;28;20042;-75
2022/10/22 17:17:03;;;;;;;31.33;15.10;;;;;;;;;;10315732;28;20035;-76
2022/10/22 17:22:04;;;;;;;35.22;14.43;;;;;;;;;;10313834;28;20050;-79
2022/10/22 17:27:04;;;;;;;29.65;14.10;;;;;;;;;;10328670;28;20030;-74
2022/10/22 17:32:04;;;;;;;33.95;14.38;;;;;;;;;;10318936;28;20026;-77
2022/10/22 17:37:04;;;;;;;27.80;13.38;;;;;;;;;;10314128;28;20054;-74
2022/10/22 17:42:05;;;;;;;44.25;14.07;;;;;;;;;;10311552;28;20117;-78
2022/10/22 17:47:06;;;;;;;31.10;13.95;;;;;;;;;;10318152;28;20034;-78
2022/10/22 17:52:09;;;;;;;33.83;14.48;;;;;;;;;;10322001;28;20477;-79
2022/10/22 17:57:11;;;;;;;32.05;15.52;;;;;;;;;;10305273;28;20489;-76
2022/10/22 18:02:16;;;;;;;48.30;19.45;;;;;;;;;;10321028;28;20041;-78
2022/10/22 18:07:16;;;;;;;35.28;15.90;;;;;;;;;;10311198;28;20018;-74
2022/10/22 18:12:18;;;;;;;40.33;15.52;;;;;;;;;;10310809;28;20249;-77
2022/10/22 18:17:18;;;;;;;41.88;16.98;;;;;;;;;;10303077;28;20116;-77
2022/10/22 18:22:18;;;;;;;29.35;15.20;;;;;;;;;;10293752;28;20023;-79
2022/10/22 18:27:19;;;;;;;31.48;15.23;;;;;;;;;;10290135;28;20105;-76
2022/10/22 18:32:19;;;;;;;29.42;16.42;;;;;;;;;;10289571;28;20027;-79
2022/10/22 18:37:19;;;;;;;34.13;17.08;;;;;;;;;;10313660;23;20541;-77
2022/10/22 18:42:19;;;;;;;31.25;16.42;;;;;;;;;;10274953;28;20557;-78
2022/10/22 18:47:20;;;;;;;35.60;15.10;;;;;;;;;;10227526;28;20033;-81
2022/10/22 18:52:20;;;;;;;36.53;14.95;;;;;;;;;;10257111;28;20023;-79
2022/10/22 18:57:20;;;;;;;26.23;14.82;;;;;;;;;;10238704;28;20074;-78
2022/10/22 19:02:20;;;;;;;28.20;15.95;;;;;;;;;;10275914;28;20033;-78
2022/10/22 19:07:20;;;;;;;30.77;14.80;;;;;;;;;;10278247;28;20065;-79
2022/10/22 19:12:24;;;;;;;35.30;16.38;;;;;;;;;;10265661;28;20022;-78
2022/10/22 19:17:24;;;;;;;34.05;16.90;;;;;;;;;;10258385;28;20058;-78
2022/10/22 19:22:24;;;;;;;30.25;15.88;;;;;;;;;;10297570;23;20070;-79
2022/10/22 19:27:25;;;;;;;30.33;15.03;;;;;;;;;;10274290;28;20062;-72
2022/10/22 19:32:25;;;;;;;33.30;14.77;;;;;;;;;;10286661;28;20115;-78
2022/10/22 19:37:25;;;;;;;37.35;15.23;;;;;;;;;;10280609;28;20057;-78
2022/10/22 19:42:25;;;;;;;29.20;15.45;;;;;;;;;;10269155;28;20069;-78
2022/10/22 19:47:26;;;;;;;33.45;14.68;;;;;;;;;;10271918;28;20436;-73
2022/10/22 19:52:27;;;;;;;31.58;16.00;;;;;;;;;;10270906;28;20034;-73
2022/10/22 19:57:28;;;;;;;33.15;15.80;;;;;;;;;;10271157;28;20090;-79
2022/10/22 20:02:29;;;;;;;43.65;15.60;;;;;;;;;;10264639;28;20031;-77
2022/10/22 20:07:29;;;;;;;36.80;16.60;;;;;;;;;;10285755;28;20038;-79
2022/10/22 20:12:29;;;;;;;38.42;17.02;;;;;;;;;;10264089;28;20038;-75
2022/10/22 20:17:29;;;;;;;32.20;17.17;;;;;;;;;;10278809;28;20030;-78
2022/10/22 20:22:30;;;;;;;32.00;17.10;;;;;;;;;;10265521;28;20054;-79
2022/10/22 20:27:30;;;;;;;39.55;17.35;;;;;;;;;;10260051;28;20027;-79
2022/10/22 20:32:30;;;;;;;42.75;19.58;;;;;;;;;;10279455;28;20027;-78
2022/10/22 20:37:31;;;;;;;44.95;18.70;;;;;;;;;;10260801;28;20131;-76
2022/10/22 20:42:32;;;;;;;40.38;19.52;;;;;;;;;;10265885;28;20071;-79
2022/10/22 20:47:33;;;;;;;39.67;19.45;;;;;;;;;;10265942;28;20053;-78
2022/10/22 20:52:34;;;;;;;33.77;18.47;;;;;;;;;;10266840;28;20033;-78
2022/10/22 20:57:34;;;;;;;48.00;19.48;;;;;;;;;;10262283;28;20784;-81
2022/10/22 21:02:35;;;;;;;56.13;39.53;;;;;;;;;;10283988;28;20031;-77
2022/10/22 21:07:35;;;;;;;41.80;19.50;;;;;;;;;;10268344;28;20030;-78
2022/10/22 21:12:40;;;;;;;44.83;19.67;;;;;;;;;;10286036;28;20026;-78
2022/10/22 21:17:40;;;;;;;47.53;20.65;;;;;;;;;;10276494;28;20078;-78
2022/10/22 21:22:40;;;;;;;41.38;19.85;;;;;;;;;;10278030;28;20563;-79
2022/10/22 21:27:41;;;;;;;39.50;19.38;;;;;;;;;;10270253;28;20042;-76
2022/10/22 21:32:41;;;;;;;39.42;18.98;;;;;;;;;;10490160;22;20525;-77
2022/10/22 21:37:41;;;;;;;46.75;18.92;;;;;;;;;;10302382;28;20697;-76
2022/10/22 21:42:41;;;;;;;36.83;19.15;;;;;;;;;;10285051;28;20022;-78
2022/10/22 21:47:42;;;;;;;42.22;18.23;;;;;;;;;;10264755;28;20373;-79
2022/10/22 21:52:42;;;;;;;44.58;20.23;;;;;;;;;;10277513;28;20018;-75
2022/10/22 21:57:42;;;;;;;32.92;17.27;;;;;;;;;;10288038;28;20019;-79
2022/10/22 22:02:42;;;;;;;42.00;19.50;;;;;;;;;;10258852;28;20057;-79
2022/10/22 22:07:44;;;;;;;37.40;18.80;;;;;;;;;;10263560;28;20563;-76
2022/10/22 22:12:44;;;;;;;34.03;17.33;;;;;;;;;;10259147;28;20274;-78
2022/10/22 22:17:44;;;;;;;40.13;18.40;;;;;;;;;;10268616;28;20094;-78
2022/10/22 22:22:45;;;;;;;31.37;16.90;;;;;;;;;;10287737;28;20425;-78
2022/10/22 22:27:46;;;;;;;43.00;19.67;;;;;;;;;;10287147;28;20054;-75
2022/10/22 22:32:47;;;;;;;32.03;17.52;;;;;;;;;;10285488;28;20050;-76
2022/10/22 22:37:47;;;;;;;41.78;17.90;;;;;;;;;;10272841;28;20038;-75
2022/10/22 22:42:47;;;;;;;36.80;19.88;;;;;;;;;;10277090;28;20142;-72
2022/10/22 22:47:47;;;;;;;34.70;16.90;;;;;;;;;;10287904;28;20051;-76
2022/10/22 22:52:48;;;;;;;42.53;19.42;;;;;;;;;;10286344;28;20040;-79
2022/10/22 22:57:48;;;;;;;33.90;17.40;;;;;;;;;;10262309;28;20019;-77
2022/10/22 23:02:52;;;;;;;31.48;16.70;;;;;;;;;;10262149;28;20018;-78
2022/10/22 23:07:52;;;;;;;42.00;17.05;;;;;;;;;;10275282;28;20046;-76
2022/10/22 23:12:52;;;;;;;32.65;17.15;;;;;;;;;;10258495;28;20136;-74
2022/10/22 23:17:53;;;;;;;43.75;18.55;;;;;;;;;;10283752;28;20015;-77
2022/10/22 23:22:53;;;;;;;35.37;17.17;;;;;;;;;;10260158;28;20449;-77
2022/10/22 23:27:53;;;;;;;39.20;17.58;;;;;;;;;;10260510;28;20030;-79
2022/10/22 23:32:53;;;;;;;36.35;16.08;;;;;;;;;;10284031;28;20046;-78
2022/10/22 23:37:54;;;;;;;29.42;15.80;;;;;;;;;;10269604;28;20023;-77
2022/10/22 23:42:54;;;;;;;39.47;17.50;;;;;;;;;;10267477;28;20023;-78
2022/10/22 23:47:54;;;;;;;28.33;15.85;;;;;;;;;;10286466;28;20023;-75
2022/10/22 23:52:54;;;;;;;29.38;15.32;;;;;;;;;;10274505;28;20019;-78
2022/10/22 23:57:55;;;;;;;32.33;15.93;;;;;;;;;;10270312;28;20061;-73
